sensor_id;sensor_type;location;lat;lon;timestamp;P1;durP1;ratioP1;P2;durP2;ratioP2
18228;SDS011;9239;50.932;3.142;2023-02-04T00:00:07;8.00;;;5.83;;
18228;SDS011;9239;50.932;3.142;2023-02-04T00:02:35;6.17;;;4.83;;
18228;SDS011;9239;50.932;3.142;2023-02-04T00:05:04;7.27;;;5.03;;
18228;SDS011;9239;50.932;3.142;2023-02-04T00:07:32;7.17;;;5.20;;
18228;SDS011;9239;50.932;3.142;2023-02-04T00:09:59;5.63;;;4.67;;
18228;SDS011;9239;50.932;3.142;2023-02-04T00:12:27;7.97;;;4.80;;
18228;SDS011;9239;50.932;3.142;2023-02-04T00:14:54;6.63;;;5.57;;
18228;SDS011;9239;50.932;3.142;2023-02-04T00:17:21;6.47;;;5.60;;
18228;SDS011;9239;50.932;3.142;2023-02-04T00:19:48;5.57;;;4.80;;
18228;SDS011;9239;50.932;3.142;2023-02-04T00:22:15;6.27;;;4.70;;
18228;SDS011;9239;50.932;3.142;2023-02-04T00:24:42;5.63;;;4.63;;
18228;SDS011;9239;50.932;3.142;2023-02-04T00:27:12;10.10;;;5.47;;
18228;SDS011;9239;50.932;3.142;2023-02-04T00:29:41;8.43;;;4.73;;
18228;SDS011;9239;50.932;3.142;2023-02-04T00:32:08;6.63;;;5.57;;
18228;SDS011;9239;50.932;3.142;2023-02-04T00:34:34;8.67;;;5.30;;
18228;SDS011;9239;50.932;3.142;2023-02-04T00:37:01;8.30;;;5.37;;
18228;SDS011;9239;50.932;3.142;2023-02-04T00:39:28;6.63;;;4.73;;
18228;SDS011;9239;50.932;3.142;2023-02-04T00:41:55;6.03;;;4.67;;
18228;SDS011;9239;50.932;3.142;2023-02-04T00:44:22;7.57;;;4.90;;
18228;SDS011;9239;50.932;3.142;2023-02-04T00:46:56;7.47;;;4.77;;
18228;SDS011;9239;50.932;3.142;2023-02-04T00:49:25;5.63;;;4.23;;
18228;SDS011;9239;50.932;3.142;2023-02-04T00:51:52;6.67;;;4.87;;
18228;SDS011;9239;50.932;3.142;2023-02-04T00:54:19;6.90;;;4.87;;
18228;SDS011;9239;50.932;3.142;2023-02-04T00:56:46;9.23;;;5.10;;
18228;SDS011;9239;50.932;3.142;2023-02-04T00:59:13;6.37;;;5.57;;
18228;SDS011;9239;50.932;3.142;2023-02-04T01:01:40;6.30;;;4.90;;
18228;SDS011;9239;50.932;3.142;2023-02-04T01:04:08;6.90;;;5.07;;
18228;SDS011;9239;50.932;3.142;2023-02-04T01:06:35;7.07;;;5.20;;
18228;SDS011;9239;50.932;3.142;2023-02-04T01:09:02;6.20;;;4.80;;
18228;SDS011;9239;50.932;3.142;2023-02-04T01:11:29;6.63;;;4.70;;
18228;SDS011;9239;50.932;3.142;2023-02-04T01:13:57;7.37;;;4.73;;
18228;SDS011;9239;50.932;3.142;2023-02-04T01:16:24;8.57;;;4.83;;
18228;SDS011;9239;50.932;3.142;2023-02-04T01:18:51;5.53;;;4.50;;
18228;SDS011;9239;50.932;3.142;2023-02-04T01:21:21;7.37;;;4.83;;
18228;SDS011;9239;50.932;3.142;2023-02-04T01:23:48;5.67;;;5.07;;
18228;SDS011;9239;50.932;3.142;2023-02-04T01:26:15;10.27;;;4.57;;
18228;SDS011;9239;50.932;3.142;2023-02-04T01:28:42;5.80;;;4.70;;
18228;SDS011;9239;50.932;3.142;2023-02-04T01:31:09;7.67;;;4.80;;
18228;SDS011;9239;50.932;3.142;2023-02-04T01:33:36;8.67;;;4.97;;
18228;SDS011;9239;50.932;3.142;2023-02-04T01:36:03;7.87;;;4.50;;
18228;SDS011;9239;50.932;3.142;2023-02-04T01:38:32;5.70;;;5.07;;
18228;SDS011;9239;50.932;3.142;2023-02-04T01:40:58;6.00;;;4.03;;
18228;SDS011;9239;50.932;3.142;2023-02-04T01:43:26;7.63;;;4.90;;
18228;SDS011;9239;50.932;3.142;2023-02-04T01:45:56;10.57;;;4.83;;
18228;SDS011;9239;50.932;3.142;2023-02-04T01:48:23;6.47;;;4.33;;
18228;SDS011;9239;50.932;3.142;2023-02-04T01:50:52;9.03;;;4.33;;
18228;SDS011;9239;50.932;3.142;2023-02-04T01:53:25;8.90;;;4.40;;
18228;SDS011;9239;50.932;3.142;2023-02-04T01:55:53;7.60;;;4.50;;
18228;SDS011;9239;50.932;3.142;2023-02-04T01:58:20;6.07;;;4.00;;
18228;SDS011;9239;50.932;3.142;2023-02-04T02:00:47;5.13;;;4.50;;
18228;SDS011;9239;50.932;3.142;2023-02-04T02:03:14;6.43;;;3.90;;
18228;SDS011;9239;50.932;3.142;2023-02-04T02:05:42;6.03;;;4.17;;
18228;SDS011;9239;50.932;3.142;2023-02-04T02:08:11;5.37;;;3.67;;
18228;SDS011;9239;50.932;3.142;2023-02-04T02:10:41;6.37;;;3.80;;
18228;SDS011;9239;50.932;3.142;2023-02-04T02:13:12;6.60;;;4.43;;
18228;SDS011;9239;50.932;3.142;2023-02-04T02:15:41;7.23;;;4.27;;
18228;SDS011;9239;50.932;3.142;2023-02-04T02:18:08;5.47;;;3.93;;
18228;SDS011;9239;50.932;3.142;2023-02-04T02:20:36;6.23;;;3.70;;
18228;SDS011;9239;50.932;3.142;2023-02-04T02:23:05;4.37;;;3.80;;
18228;SDS011;9239;50.932;3.142;2023-02-04T02:25:40;5.37;;;3.60;;
18228;SDS011;9239;50.932;3.142;2023-02-04T02:28:09;7.23;;;4.10;;
18228;SDS011;9239;50.932;3.142;2023-02-04T02:30:37;6.70;;;3.93;;
18228;SDS011;9239;50.932;3.142;2023-02-04T02:33:05;5.60;;;4.00;;
18228;SDS011;9239;50.932;3.142;2023-02-04T02:35:32;7.83;;;4.10;;
18228;SDS011;9239;50.932;3.142;2023-02-04T02:38:00;4.97;;;3.90;;
18228;SDS011;9239;50.932;3.142;2023-02-04T02:40:27;4.60;;;4.13;;
18228;SDS011;9239;50.932;3.142;2023-02-04T02:42:55;9.60;;;4.40;;
18228;SDS011;9239;50.932;3.142;2023-02-04T02:45:23;9.43;;;4.27;;
18228;SDS011;9239;50.932;3.142;2023-02-04T02:47:52;5.73;;;4.43;;
18228;SDS011;9239;50.932;3.142;2023-02-04T02:50:20;7.87;;;4.17;;
18228;SDS011;9239;50.932;3.142;2023-02-04T02:52:50;6.43;;;4.57;;
18228;SDS011;9239;50.932;3.142;2023-02-04T02:55:18;6.03;;;4.43;;
18228;SDS011;9239;50.932;3.142;2023-02-04T02:57:47;7.20;;;4.37;;
18228;SDS011;9239;50.932;3.142;2023-02-04T03:00:17;5.57;;;3.80;;
18228;SDS011;9239;50.932;3.142;2023-02-04T03:02:53;9.40;;;4.70;;
18228;SDS011;9239;50.932;3.142;2023-02-04T03:05:22;7.30;;;4.30;;
18228;SDS011;9239;50.932;3.142;2023-02-04T03:07:50;6.50;;;4.00;;
18228;SDS011;9239;50.932;3.142;2023-02-04T03:10:17;5.03;;;4.13;;
18228;SDS011;9239;50.932;3.142;2023-02-04T03:12:45;8.70;;;4.13;;
18228;SDS011;9239;50.932;3.142;2023-02-04T03:15:13;6.37;;;4.07;;
18228;SDS011;9239;50.932;3.142;2023-02-04T03:17:41;8.10;;;4.60;;
18228;SDS011;9239;50.932;3.142;2023-02-04T03:20:09;5.20;;;3.80;;
18228;SDS011;9239;50.932;3.142;2023-02-04T03:22:38;7.63;;;4.07;;
18228;SDS011;9239;50.932;3.142;2023-02-04T03:25:05;8.93;;;4.00;;
18228;SDS011;9239;50.932;3.142;2023-02-04T03:27:33;5.73;;;3.90;;
18228;SDS011;9239;50.932;3.142;2023-02-04T03:30:00;7.10;;;4.10;;
18228;SDS011;9239;50.932;3.142;2023-02-04T03:32:26;6.03;;;4.20;;
18228;SDS011;9239;50.932;3.142;2023-02-04T03:34:55;6.07;;;4.50;;
18228;SDS011;9239;50.932;3.142;2023-02-04T03:37:21;5.90;;;3.60;;
18228;SDS011;9239;50.932;3.142;2023-02-04T03:39:49;5.67;;;4.13;;
18228;SDS011;9239;50.932;3.142;2023-02-04T03:42:16;7.87;;;4.97;;
18228;SDS011;9239;50.932;3.142;2023-02-04T03:44:43;8.70;;;4.63;;
18228;SDS011;9239;50.932;3.142;2023-02-04T03:47:09;5.47;;;4.13;;
18228;SDS011;9239;50.932;3.142;2023-02-04T03:49:36;12.03;;;5.20;;
18228;SDS011;9239;50.932;3.142;2023-02-04T03:52:05;8.07;;;4.10;;
18228;SDS011;9239;50.932;3.142;2023-02-04T03:54:33;9.33;;;4.50;;
18228;SDS011;9239;50.932;3.142;2023-02-04T03:56:59;4.83;;;3.23;;
18228;SDS011;9239;50.932;3.142;2023-02-04T03:59:26;10.37;;;4.53;;
18228;SDS011;9239;50.932;3.142;2023-02-04T04:01:53;8.57;;;4.33;;
18228;SDS011;9239;50.932;3.142;2023-02-04T04:04:20;5.43;;;3.63;;
18228;SDS011;9239;50.932;3.142;2023-02-04T04:06:47;6.80;;;3.80;;
18228;SDS011;9239;50.932;3.142;2023-02-04T04:09:15;6.40;;;4.00;;
18228;SDS011;9239;50.932;3.142;2023-02-04T04:11:42;8.63;;;3.97;;
18228;SDS011;9239;50.932;3.142;2023-02-04T04:14:09;7.70;;;3.93;;
18228;SDS011;9239;50.932;3.142;2023-02-04T04:16:36;6.67;;;3.90;;
18228;SDS011;9239;50.932;3.142;2023-02-04T04:19:03;5.27;;;3.40;;
18228;SDS011;9239;50.932;3.142;2023-02-04T04:21:30;6.27;;;4.23;;
18228;SDS011;9239;50.932;3.142;2023-02-04T04:23:56;8.30;;;3.57;;
18228;SDS011;9239;50.932;3.142;2023-02-04T04:26:25;8.43;;;3.93;;
18228;SDS011;9239;50.932;3.142;2023-02-04T04:28:53;7.33;;;3.97;;
18228;SDS011;9239;50.932;3.142;2023-02-04T04:31:20;6.60;;;4.63;;
18228;SDS011;9239;50.932;3.142;2023-02-04T04:33:47;6.90;;;3.43;;
18228;SDS011;9239;50.932;3.142;2023-02-04T04:36:13;8.77;;;4.37;;
18228;SDS011;9239;50.932;3.142;2023-02-04T04:38:41;8.23;;;4.30;;
18228;SDS011;9239;50.932;3.142;2023-02-04T04:41:07;8.47;;;4.07;;
18228;SDS011;9239;50.932;3.142;2023-02-04T04:43:36;5.67;;;3.77;;
18228;SDS011;9239;50.932;3.142;2023-02-04T04:46:02;7.30;;;4.47;;
18228;SDS011;9239;50.932;3.142;2023-02-04T04:48:29;6.70;;;3.77;;
18228;SDS011;9239;50.932;3.142;2023-02-04T04:50:56;9.40;;;3.87;;
18228;SDS011;9239;50.932;3.142;2023-02-04T04:53:23;7.37;;;3.67;;
18228;SDS011;9239;50.932;3.142;2023-02-04T04:55:50;6.23;;;3.57;;
18228;SDS011;9239;50.932;3.142;2023-02-04T04:58:17;5.70;;;3.70;;
18228;SDS011;9239;50.932;3.142;2023-02-04T05:00:45;6.57;;;3.57;;
18228;SDS011;9239;50.932;3.142;2023-02-04T05:03:12;11.77;;;3.60;;
18228;SDS011;9239;50.932;3.142;2023-02-04T05:05:39;8.13;;;4.37;;
18228;SDS011;9239;50.932;3.142;2023-02-04T05:08:06;5.53;;;3.30;;
18228;SDS011;9239;50.932;3.142;2023-02-04T05:10:35;3.83;;;3.43;;
18228;SDS011;9239;50.932;3.142;2023-02-04T05:13:02;6.40;;;4.03;;
18228;SDS011;9239;50.932;3.142;2023-02-04T05:15:28;8.23;;;4.13;;
18228;SDS011;9239;50.932;3.142;2023-02-04T05:17:57;9.90;;;4.07;;
18228;SDS011;9239;50.932;3.142;2023-02-04T05:20:23;5.33;;;4.33;;
18228;SDS011;9239;50.932;3.142;2023-02-04T05:22:50;7.47;;;3.70;;
18228;SDS011;9239;50.932;3.142;2023-02-04T05:25:17;6.27;;;3.80;;
18228;SDS011;9239;50.932;3.142;2023-02-04T05:27:44;9.20;;;4.30;;
18228;SDS011;9239;50.932;3.142;2023-02-04T05:30:11;6.00;;;3.70;;
18228;SDS011;9239;50.932;3.142;2023-02-04T05:32:39;6.43;;;3.50;;
18228;SDS011;9239;50.932;3.142;2023-02-04T05:35:07;7.23;;;3.83;;
18228;SDS011;9239;50.932;3.142;2023-02-04T05:37:35;4.60;;;3.13;;
18228;SDS011;9239;50.932;3.142;2023-02-04T05:40:01;5.00;;;3.40;;
18228;SDS011;9239;50.932;3.142;2023-02-04T05:42:29;6.07;;;3.40;;
18228;SDS011;9239;50.932;3.142;2023-02-04T05:44:56;6.70;;;4.57;;
18228;SDS011;9239;50.932;3.142;2023-02-04T05:47:23;5.13;;;4.47;;
18228;SDS011;9239;50.932;3.142;2023-02-04T05:49:49;8.57;;;5.27;;
18228;SDS011;9239;50.932;3.142;2023-02-04T05:52:18;9.37;;;6.13;;
18228;SDS011;9239;50.932;3.142;2023-02-04T05:54:44;10.13;;;6.43;;
18228;SDS011;9239;50.932;3.142;2023-02-04T05:57:12;8.70;;;6.40;;
18228;SDS011;9239;50.932;3.142;2023-02-04T05:59:38;10.43;;;6.30;;
18228;SDS011;9239;50.932;3.142;2023-02-04T06:02:05;8.17;;;6.10;;
18228;SDS011;9239;50.932;3.142;2023-02-04T06:04:32;6.53;;;5.57;;
18228;SDS011;9239;50.932;3.142;2023-02-04T06:06:59;5.97;;;5.33;;
18228;SDS011;9239;50.932;3.142;2023-02-04T06:09:28;7.80;;;5.13;;
18228;SDS011;9239;50.932;3.142;2023-02-04T06:11:55;8.93;;;5.80;;
18228;SDS011;9239;50.932;3.142;2023-02-04T06:14:22;8.80;;;5.20;;
18228;SDS011;9239;50.932;3.142;2023-02-04T06:16:49;8.40;;;6.10;;
18228;SDS011;9239;50.932;3.142;2023-02-04T06:19:16;11.13;;;5.73;;
18228;SDS011;9239;50.932;3.142;2023-02-04T06:21:43;8.93;;;6.80;;
18228;SDS011;9239;50.932;3.142;2023-02-04T06:24:10;7.93;;;6.80;;
18228;SDS011;9239;50.932;3.142;2023-02-04T06:26:38;11.63;;;8.43;;
18228;SDS011;9239;50.932;3.142;2023-02-04T06:29:05;20.80;;;13.57;;
18228;SDS011;9239;50.932;3.142;2023-02-04T06:31:32;35.10;;;23.33;;
18228;SDS011;9239;50.932;3.142;2023-02-04T06:34:01;25.23;;;17.50;;
18228;SDS011;9239;50.932;3.142;2023-02-04T06:36:29;21.77;;;17.13;;
18228;SDS011;9239;50.932;3.142;2023-02-04T06:38:59;31.13;;;20.30;;
18228;SDS011;9239;50.932;3.142;2023-02-04T06:41:47;16.90;;;13.03;;
18228;SDS011;9239;50.932;3.142;2023-02-04T06:44:14;13.17;;;10.87;;
18228;SDS011;9239;50.932;3.142;2023-02-04T06:46:41;13.00;;;9.70;;
18228;SDS011;9239;50.932;3.142;2023-02-04T06:49:08;8.53;;;7.63;;
18228;SDS011;9239;50.932;3.142;2023-02-04T06:51:35;10.83;;;8.80;;
18228;SDS011;9239;50.932;3.142;2023-02-04T06:54:02;8.53;;;7.73;;
18228;SDS011;9239;50.932;3.142;2023-02-04T06:56:29;11.40;;;10.07;;
18228;SDS011;9239;50.932;3.142;2023-02-04T06:58:57;15.50;;;11.83;;
18228;SDS011;9239;50.932;3.142;2023-02-04T07:01:24;12.33;;;10.37;;
18228;SDS011;9239;50.932;3.142;2023-02-04T07:03:51;11.60;;;10.07;;
18228;SDS011;9239;50.932;3.142;2023-02-04T07:06:18;11.80;;;8.97;;
18228;SDS011;9239;50.932;3.142;2023-02-04T07:08:44;14.17;;;12.10;;
18228;SDS011;9239;50.932;3.142;2023-02-04T07:11:13;17.47;;;15.43;;
18228;SDS011;9239;50.932;3.142;2023-02-04T07:13:40;13.37;;;11.10;;
18228;SDS011;9239;50.932;3.142;2023-02-04T07:16:09;12.93;;;10.97;;
18228;SDS011;9239;50.932;3.142;2023-02-04T07:18:35;15.40;;;10.60;;
18228;SDS011;9239;50.932;3.142;2023-02-04T07:21:02;13.43;;;9.53;;
18228;SDS011;9239;50.932;3.142;2023-02-04T07:23:29;10.10;;;7.80;;
18228;SDS011;9239;50.932;3.142;2023-02-04T07:25:56;14.70;;;9.63;;
18228;SDS011;9239;50.932;3.142;2023-02-04T07:28:24;11.80;;;9.40;;
18228;SDS011;9239;50.932;3.142;2023-02-04T07:30:53;12.07;;;8.13;;
18228;SDS011;9239;50.932;3.142;2023-02-04T07:33:22;12.53;;;9.20;;
18228;SDS011;9239;50.932;3.142;2023-02-04T07:35:49;16.73;;;12.03;;
18228;SDS011;9239;50.932;3.142;2023-02-04T07:38:16;16.93;;;13.13;;
18228;SDS011;9239;50.932;3.142;2023-02-04T07:40:42;14.63;;;11.93;;
18228;SDS011;9239;50.932;3.142;2023-02-04T07:43:10;17.23;;;13.03;;
18228;SDS011;9239;50.932;3.142;2023-02-04T07:45:37;17.80;;;14.70;;
18228;SDS011;9239;50.932;3.142;2023-02-04T07:48:04;17.57;;;11.13;;
18228;SDS011;9239;50.932;3.142;2023-02-04T07:50:32;12.67;;;9.37;;
18228;SDS011;9239;50.932;3.142;2023-02-04T07:52:59;10.83;;;9.23;;
18228;SDS011;9239;50.932;3.142;2023-02-04T07:55:26;11.30;;;10.07;;
18228;SDS011;9239;50.932;3.142;2023-02-04T07:57:53;12.20;;;10.70;;
18228;SDS011;9239;50.932;3.142;2023-02-04T08:00:20;11.40;;;9.93;;
18228;SDS011;9239;50.932;3.142;2023-02-04T08:02:48;18.10;;;11.07;;
18228;SDS011;9239;50.932;3.142;2023-02-04T08:05:16;11.53;;;10.33;;
18228;SDS011;9239;50.932;3.142;2023-02-04T08:07:44;14.13;;;10.47;;
18228;SDS011;9239;50.932;3.142;2023-02-04T08:10:11;11.87;;;9.50;;
18228;SDS011;9239;50.932;3.142;2023-02-04T08:12:38;14.80;;;13.30;;
18228;SDS011;9239;50.932;3.142;2023-02-04T08:15:05;17.43;;;15.60;;
18228;SDS011;9239;50.932;3.142;2023-02-04T08:17:33;14.20;;;12.90;;
18228;SDS011;9239;50.932;3.142;2023-02-04T08:20:00;14.40;;;13.03;;
18228;SDS011;9239;50.932;3.142;2023-02-04T08:22:30;15.57;;;13.97;;
18228;SDS011;9239;50.932;3.142;2023-02-04T08:25:01;16.77;;;13.37;;
18228;SDS011;9239;50.932;3.142;2023-02-04T08:27:31;14.23;;;12.50;;
18228;SDS011;9239;50.932;3.142;2023-02-04T08:29:58;12.73;;;11.43;;
18228;SDS011;9239;50.932;3.142;2023-02-04T08:32:25;9.73;;;8.67;;
18228;SDS011;9239;50.932;3.142;2023-02-04T08:34:53;12.67;;;9.93;;
18228;SDS011;9239;50.932;3.142;2023-02-04T08:37:23;10.43;;;9.10;;
18228;SDS011;9239;50.932;3.142;2023-02-04T08:39:50;11.27;;;8.70;;
18228;SDS011;9239;50.932;3.142;2023-02-04T08:42:19;14.93;;;10.40;;
18228;SDS011;9239;50.932;3.142;2023-02-04T08:44:46;11.53;;;9.00;;
18228;SDS011;9239;50.932;3.142;2023-02-04T08:47:12;9.87;;;7.50;;
18228;SDS011;9239;50.932;3.142;2023-02-04T08:49:39;12.33;;;9.20;;
18228;SDS011;9239;50.932;3.142;2023-02-04T08:52:06;11.87;;;9.50;;
18228;SDS011;9239;50.932;3.142;2023-02-04T08:54:34;11.03;;;8.63;;
18228;SDS011;9239;50.932;3.142;2023-02-04T08:57:01;10.20;;;8.83;;
18228;SDS011;9239;50.932;3.142;2023-02-04T08:59:29;9.00;;;8.13;;
18228;SDS011;9239;50.932;3.142;2023-02-04T09:01:59;9.30;;;8.27;;
18228;SDS011;9239;50.932;3.142;2023-02-04T09:04:27;9.37;;;7.73;;
18228;SDS011;9239;50.932;3.142;2023-02-04T09:06:54;8.67;;;7.77;;
18228;SDS011;9239;50.932;3.142;2023-02-04T09:09:23;9.77;;;8.00;;
18228;SDS011;9239;50.932;3.142;2023-02-04T09:11:50;12.13;;;7.47;;
18228;SDS011;9239;50.932;3.142;2023-02-04T09:14:17;14.07;;;8.13;;
18228;SDS011;9239;50.932;3.142;2023-02-04T09:16:46;7.07;;;6.10;;
18228;SDS011;9239;50.932;3.142;2023-02-04T09:19:13;9.57;;;6.90;;
18228;SDS011;9239;50.932;3.142;2023-02-04T09:21:43;7.03;;;5.97;;
18228;SDS011;9239;50.932;3.142;2023-02-04T09:24:10;10.10;;;6.63;;
18228;SDS011;9239;50.932;3.142;2023-02-04T09:26:36;9.87;;;6.33;;
18228;SDS011;9239;50.932;3.142;2023-02-04T09:29:03;10.93;;;6.33;;
18228;SDS011;9239;50.932;3.142;2023-02-04T09:31:30;9.67;;;6.03;;
18228;SDS011;9239;50.932;3.142;2023-02-04T09:33:58;7.90;;;6.80;;
18228;SDS011;9239;50.932;3.142;2023-02-04T09:36:25;9.40;;;5.87;;
18228;SDS011;9239;50.932;3.142;2023-02-04T09:38:54;8.60;;;6.30;;
18228;SDS011;9239;50.932;3.142;2023-02-04T09:41:21;7.73;;;6.03;;
18228;SDS011;9239;50.932;3.142;2023-02-04T09:43:48;11.57;;;6.80;;
18228;SDS011;9239;50.932;3.142;2023-02-04T09:46:17;7.73;;;5.83;;
18228;SDS011;9239;50.932;3.142;2023-02-04T09:48:46;8.07;;;5.90;;
18228;SDS011;9239;50.932;3.142;2023-02-04T09:51:16;9.93;;;6.20;;
18228;SDS011;9239;50.932;3.142;2023-02-04T09:53:44;7.27;;;6.10;;
18228;SDS011;9239;50.932;3.142;2023-02-04T09:56:12;7.33;;;5.50;;
18228;SDS011;9239;50.932;3.142;2023-02-04T09:58:41;7.63;;;5.63;;
18228;SDS011;9239;50.932;3.142;2023-02-04T10:01:11;8.53;;;6.17;;
18228;SDS011;9239;50.932;3.142;2023-02-04T10:03:41;8.07;;;6.37;;
18228;SDS011;9239;50.932;3.142;2023-02-04T10:06:12;8.30;;;5.37;;
18228;SDS011;9239;50.932;3.142;2023-02-04T10:08:40;7.20;;;5.57;;
18228;SDS011;9239;50.932;3.142;2023-02-04T10:11:08;9.17;;;5.37;;
18228;SDS011;9239;50.932;3.142;2023-02-04T10:13:37;6.70;;;5.50;;
18228;SDS011;9239;50.932;3.142;2023-02-04T10:16:13;7.93;;;6.07;;
18228;SDS011;9239;50.932;3.142;2023-02-04T10:18:41;8.57;;;6.20;;
18228;SDS011;9239;50.932;3.142;2023-02-04T10:21:13;9.80;;;6.70;;
18228;SDS011;9239;50.932;3.142;2023-02-04T10:23:44;7.23;;;6.17;;
18228;SDS011;9239;50.932;3.142;2023-02-04T10:26:13;8.90;;;5.70;;
18228;SDS011;9239;50.932;3.142;2023-02-04T10:28:41;11.73;;;6.20;;
18228;SDS011;9239;50.932;3.142;2023-02-04T10:31:29;8.83;;;6.07;;
18228;SDS011;9239;50.932;3.142;2023-02-04T10:34:02;6.27;;;5.63;;
18228;SDS011;9239;50.932;3.142;2023-02-04T10:36:35;10.43;;;6.33;;
18228;SDS011;9239;50.932;3.142;2023-02-04T10:39:04;7.70;;;6.47;;
18228;SDS011;9239;50.932;3.142;2023-02-04T10:41:32;8.60;;;6.27;;
18228;SDS011;9239;50.932;3.142;2023-02-04T10:44:03;11.67;;;7.57;;
18228;SDS011;9239;50.932;3.142;2023-02-04T10:46:31;11.97;;;6.97;;
18228;SDS011;9239;50.932;3.142;2023-02-04T10:48:58;9.20;;;7.83;;
18228;SDS011;9239;50.932;3.142;2023-02-04T10:51:25;8.10;;;6.40;;
18228;SDS011;9239;50.932;3.142;2023-02-04T10:53:52;8.30;;;5.80;;
18228;SDS011;9239;50.932;3.142;2023-02-04T10:56:37;9.50;;;7.37;;
18228;SDS011;9239;50.932;3.142;2023-02-04T10:59:05;8.73;;;5.73;;
18228;SDS011;9239;50.932;3.142;2023-02-04T11:01:38;8.57;;;5.90;;
18228;SDS011;9239;50.932;3.142;2023-02-04T11:04:07;9.50;;;5.50;;
18228;SDS011;9239;50.932;3.142;2023-02-04T11:06:35;10.23;;;6.00;;
18228;SDS011;9239;50.932;3.142;2023-02-04T11:09:02;6.23;;;5.40;;
18228;SDS011;9239;50.932;3.142;2023-02-04T11:11:29;6.43;;;4.93;;
18228;SDS011;9239;50.932;3.142;2023-02-04T11:13:58;7.47;;;4.77;;
18228;SDS011;9239;50.932;3.142;2023-02-04T11:16:27;5.37;;;4.67;;
18228;SDS011;9239;50.932;3.142;2023-02-04T11:18:57;6.27;;;5.30;;
18228;SDS011;9239;50.932;3.142;2023-02-04T11:21:26;6.33;;;5.00;;
18228;SDS011;9239;50.932;3.142;2023-02-04T11:24:05;6.30;;;4.80;;
18228;SDS011;9239;50.932;3.142;2023-02-04T11:26:49;5.60;;;4.83;;
18228;SDS011;9239;50.932;3.142;2023-02-04T11:29:27;8.67;;;4.83;;
18228;SDS011;9239;50.932;3.142;2023-02-04T11:32:01;4.90;;;4.40;;
18228;SDS011;9239;50.932;3.142;2023-02-04T11:34:30;8.23;;;5.40;;
18228;SDS011;9239;50.932;3.142;2023-02-04T11:37:14;5.07;;;4.57;;
18228;SDS011;9239;50.932;3.142;2023-02-04T11:39:44;8.53;;;5.13;;
18228;SDS011;9239;50.932;3.142;2023-02-04T11:42:15;5.83;;;4.47;;
18228;SDS011;9239;50.932;3.142;2023-02-04T11:44:50;13.57;;;5.90;;
18228;SDS011;9239;50.932;3.142;2023-02-04T11:47:18;9.77;;;5.80;;
18228;SDS011;9239;50.932;3.142;2023-02-04T11:49:47;5.90;;;5.03;;
18228;SDS011;9239;50.932;3.142;2023-02-04T11:52:20;6.63;;;4.80;;
18228;SDS011;9239;50.932;3.142;2023-02-04T11:54:53;5.47;;;4.97;;
18228;SDS011;9239;50.932;3.142;2023-02-04T11:57:21;6.17;;;4.60;;
18228;SDS011;9239;50.932;3.142;2023-02-04T11:59:48;7.23;;;5.20;;
18228;SDS011;9239;50.932;3.142;2023-02-04T12:02:17;6.93;;;4.77;;
18228;SDS011;9239;50.932;3.142;2023-02-04T12:04:49;9.27;;;6.20;;
18228;SDS011;9239;50.932;3.142;2023-02-04T12:07:22;7.50;;;6.60;;
18228;SDS011;9239;50.932;3.142;2023-02-04T12:09:51;7.07;;;6.13;;
18228;SDS011;9239;50.932;3.142;2023-02-04T12:12:24;7.17;;;5.43;;
18228;SDS011;9239;50.932;3.142;2023-02-04T12:14:57;7.50;;;5.47;;
18228;SDS011;9239;50.932;3.142;2023-02-04T12:17:27;5.20;;;4.70;;
18228;SDS011;9239;50.932;3.142;2023-02-04T12:19:53;8.40;;;5.20;;
18228;SDS011;9239;50.932;3.142;2023-02-04T12:22:20;5.50;;;5.00;;
18228;SDS011;9239;50.932;3.142;2023-02-04T12:24:47;6.17;;;5.10;;
18228;SDS011;9239;50.932;3.142;2023-02-04T12:27:16;5.83;;;4.73;;
18228;SDS011;9239;50.932;3.142;2023-02-04T12:29:43;6.13;;;4.73;;
18228;SDS011;9239;50.932;3.142;2023-02-04T12:32:11;5.93;;;4.73;;
18228;SDS011;9239;50.932;3.142;2023-02-04T12:34:38;6.40;;;5.37;;
18228;SDS011;9239;50.932;3.142;2023-02-04T12:37:05;6.03;;;4.37;;
18228;SDS011;9239;50.932;3.142;2023-02-04T12:39:32;5.90;;;4.00;;
18228;SDS011;9239;50.932;3.142;2023-02-04T12:41:59;11.33;;;4.90;;
18228;SDS011;9239;50.932;3.142;2023-02-04T12:44:26;6.40;;;4.53;;
18228;SDS011;9239;50.932;3.142;2023-02-04T12:46:53;5.93;;;4.73;;
18228;SDS011;9239;50.932;3.142;2023-02-04T12:49:21;6.87;;;5.13;;
18228;SDS011;9239;50.932;3.142;2023-02-04T12:51:49;7.33;;;5.83;;
18228;SDS011;9239;50.932;3.142;2023-02-04T12:54:16;5.83;;;4.80;;
18228;SDS011;9239;50.932;3.142;2023-02-04T12:56:43;5.80;;;4.90;;
18228;SDS011;9239;50.932;3.142;2023-02-04T12:59:10;7.43;;;4.60;;
18228;SDS011;9239;50.932;3.142;2023-02-04T13:01:37;7.33;;;5.07;;
18228;SDS011;9239;50.932;3.142;2023-02-04T13:04:04;6.77;;;4.97;;
18228;SDS011;9239;50.932;3.142;2023-02-04T13:06:32;8.67;;;6.27;;
18228;SDS011;9239;50.932;3.142;2023-02-04T13:08:59;7.63;;;6.20;;
18228;SDS011;9239;50.932;3.142;2023-02-04T13:11:26;5.57;;;5.00;;
18228;SDS011;9239;50.932;3.142;2023-02-04T13:13:52;7.50;;;6.80;;
18228;SDS011;9239;50.932;3.142;2023-02-04T13:16:19;8.30;;;5.77;;
18228;SDS011;9239;50.932;3.142;2023-02-04T13:18:48;9.40;;;5.10;;
18228;SDS011;9239;50.932;3.142;2023-02-04T13:21:15;8.43;;;5.00;;
18228;SDS011;9239;50.932;3.142;2023-02-04T13:23:44;7.07;;;5.60;;
18228;SDS011;9239;50.932;3.142;2023-02-04T13:26:11;6.90;;;5.17;;
18228;SDS011;9239;50.932;3.142;2023-02-04T13:28:37;7.57;;;5.27;;
18228;SDS011;9239;50.932;3.142;2023-02-04T13:31:04;7.00;;;5.17;;
18228;SDS011;9239;50.932;3.142;2023-02-04T13:33:31;9.73;;;4.90;;
18228;SDS011;9239;50.932;3.142;2023-02-04T13:35:58;9.37;;;5.97;;
18228;SDS011;9239;50.932;3.142;2023-02-04T13:38:25;7.30;;;5.97;;
18228;SDS011;9239;50.932;3.142;2023-02-04T13:40:53;7.70;;;6.73;;
18228;SDS011;9239;50.932;3.142;2023-02-04T13:43:20;6.67;;;5.97;;
18228;SDS011;9239;50.932;3.142;2023-02-04T13:45:47;9.23;;;6.60;;
18228;SDS011;9239;50.932;3.142;2023-02-04T13:48:15;7.93;;;6.00;;
18228;SDS011;9239;50.932;3.142;2023-02-04T13:50:42;9.37;;;6.23;;
18228;SDS011;9239;50.932;3.142;2023-02-04T13:53:09;7.80;;;6.30;;
18228;SDS011;9239;50.932;3.142;2023-02-04T13:55:36;8.77;;;6.87;;
18228;SDS011;9239;50.932;3.142;2023-02-04T13:58:04;11.13;;;7.10;;
18228;SDS011;9239;50.932;3.142;2023-02-04T14:00:31;10.70;;;7.10;;
18228;SDS011;9239;50.932;3.142;2023-02-04T14:02:58;9.87;;;7.03;;
18228;SDS011;9239;50.932;3.142;2023-02-04T14:05:25;11.63;;;7.60;;
18228;SDS011;9239;50.932;3.142;2023-02-04T14:07:52;9.20;;;7.53;;
18228;SDS011;9239;50.932;3.142;2023-02-04T14:10:19;8.43;;;6.97;;
18228;SDS011;9239;50.932;3.142;2023-02-04T14:12:48;9.23;;;7.67;;
18228;SDS011;9239;50.932;3.142;2023-02-04T14:15:17;11.63;;;7.17;;
18228;SDS011;9239;50.932;3.142;2023-02-04T14:17:44;9.37;;;7.43;;
18228;SDS011;9239;50.932;3.142;2023-02-04T14:20:11;10.23;;;7.50;;
18228;SDS011;9239;50.932;3.142;2023-02-04T14:22:38;11.80;;;7.80;;
18228;SDS011;9239;50.932;3.142;2023-02-04T14:25:05;10.60;;;7.00;;
18228;SDS011;9239;50.932;3.142;2023-02-04T14:27:33;10.60;;;7.13;;
18228;SDS011;9239;50.932;3.142;2023-02-04T14:30:02;8.07;;;6.33;;
18228;SDS011;9239;50.932;3.142;2023-02-04T14:32:31;10.03;;;7.23;;
18228;SDS011;9239;50.932;3.142;2023-02-04T14:34:58;9.13;;;7.50;;
18228;SDS011;9239;50.932;3.142;2023-02-04T14:37:25;10.37;;;8.63;;
18228;SDS011;9239;50.932;3.142;2023-02-04T14:39:52;11.90;;;8.23;;
18228;SDS011;9239;50.932;3.142;2023-02-04T14:42:20;13.83;;;9.10;;
18228;SDS011;9239;50.932;3.142;2023-02-04T14:44:46;8.87;;;7.97;;
18228;SDS011;9239;50.932;3.142;2023-02-04T14:47:13;11.37;;;8.73;;
18228;SDS011;9239;50.932;3.142;2023-02-04T14:49:41;13.43;;;7.60;;
18228;SDS011;9239;50.932;3.142;2023-02-04T14:52:08;11.57;;;9.53;;
18228;SDS011;9239;50.932;3.142;2023-02-04T14:54:37;9.80;;;8.67;;
18228;SDS011;9239;50.932;3.142;2023-02-04T14:57:04;11.30;;;8.63;;
18228;SDS011;9239;50.932;3.142;2023-02-04T14:59:35;10.07;;;8.00;;